sensor_id;sensor_type;location;lat;lon;timestamp;temperature;humidity
14031;DHT22;7090;49.436;8.490;2023-08-30T00:02:05;15.30;99.90
14031;DHT22;7090;49.436;8.490;2023-08-30T00:04:30;15.30;99.90
14031;DHT22;7090;49.436;8.490;2023-08-30T00:06:56;15.20;99.90
14031;DHT22;7090;49.436;8.490;2023-08-30T00:09:21;15.20;99.90
14031;DHT22;7090;49.436;8.490;2023-08-30T00:11:47;15.20;99.90
14031;DHT22;7090;49.436;8.490;2023-08-30T00:14:12;15.30;99.90
14031;DHT22;7090;49.436;8.490;2023-08-30T00:16:38;15.30;99.90
14031;DHT22;7090;49.436;8.490;2023-08-30T00:19:04;15.20;99.90
14031;DHT22;7090;49.436;8.490;2023-08-30T00:21:29;15.20;99.90
14031;DHT22;7090;49.436;8.490;2023-08-30T00:23:55;15.20;99.90
14031;DHT22;7090;49.436;8.490;2023-08-30T00:26:21;15.20;99.90
14031;DHT22;7090;49.436;8.490;2023-08-30T00:28:47;15.20;99.90
14031;DHT22;7090;49.436;8.490;2023-08-30T00:31:12;15.20;99.90
14031;DHT22;7090;49.436;8.490;2023-08-30T00:33:38;15.20;99.90
14031;DHT22;7090;49.436;8.490;2023-08-30T00:36:04;15.20;99.90
14031;DHT22;7090;49.436;8.490;2023-08-30T00:38:30;15.20;99.90
14031;DHT22;7090;49.436;8.490;2023-08-30T00:40:58;15.20;99.90
14031;DHT22;7090;49.436;8.490;2023-08-30T00:43:23;15.10;99.90
14031;DHT22;7090;49.436;8.490;2023-08-30T00:45:49;15.10;99.90
14031;DHT22;7090;49.436;8.490;2023-08-30T00:48:16;15.20;99.90
14031;DHT22;7090;49.436;8.490;2023-08-30T00:50:44;15.20;99.90
14031;DHT22;7090;49.436;8.490;2023-08-30T00:53:10;15.30;99.90
14031;DHT22;7090;49.436;8.490;2023-08-30T00:55:37;15.20;99.90
14031;DHT22;7090;49.436;8.490;2023-08-30T00:58:03;15.20;99.90
14031;DHT22;7090;49.436;8.490;2023-08-30T01:00:30;15.20;99.90
14031;DHT22;7090;49.436;8.490;2023-08-30T01:02:56;15.20;99.90
14031;DHT22;7090;49.436;8.490;2023-08-30T01:05:22;15.20;99.90
14031;DHT22;7090;49.436;8.490;2023-08-30T01:07:49;15.30;99.90
14031;DHT22;7090;49.436;8.490;2023-08-30T01:10:15;15.30;99.90
14031;DHT22;7090;49.436;8.490;2023-08-30T01:12:47;15.30;99.90
14031;DHT22;7090;49.436;8.490;2023-08-30T01:15:20;15.20;99.90
14031;DHT22;7090;49.436;8.490;2023-08-30T01:17:52;15.30;99.90
14031;DHT22;7090;49.436;8.490;2023-08-30T01:20:18;15.20;99.90
14031;DHT22;7090;49.436;8.490;2023-08-30T01:23:06;15.20;99.90
14031;DHT22;7090;49.436;8.490;2023-08-30T01:26:08;15.10;99.90
14031;DHT22;7090;49.436;8.490;2023-08-30T01:28:35;15.10;99.90
14031;DHT22;7090;49.436;8.490;2023-08-30T01:31:04;15.10;99.90
14031;DHT22;7090;49.436;8.490;2023-08-30T01:33:31;15.10;99.90
14031;DHT22;7090;49.436;8.490;2023-08-30T01:35:59;15.10;99.90
14031;DHT22;7090;49.436;8.490;2023-08-30T01:38:27;15.10;99.90
14031;DHT22;7090;49.436;8.490;2023-08-30T01:40:55;15.10;99.90
14031;DHT22;7090;49.436;8.490;2023-08-30T01:43:22;15.00;99.90
14031;DHT22;7090;49.436;8.490;2023-08-30T01:45:48;15.00;99.90
14031;DHT22;7090;49.436;8.490;2023-08-30T01:48:15;15.00;99.90
14031;DHT22;7090;49.436;8.490;2023-08-30T01:50:43;15.00;99.90
14031;DHT22;7090;49.436;8.490;2023-08-30T01:53:12;15.00;99.90
14031;DHT22;7090;49.436;8.490;2023-08-30T01:55:38;15.00;99.90
14031;DHT22;7090;49.436;8.490;2023-08-30T01:58:05;15.00;99.90
14031;DHT22;7090;49.436;8.490;2023-08-30T02:00:32;15.00;99.90
14031;DHT22;7090;49.436;8.490;2023-08-30T02:02:57;15.00;99.90
14031;DHT22;7090;49.436;8.490;2023-08-30T02:05:23;15.00;99.90
14031;DHT22;7090;49.436;8.490;2023-08-30T02:07:51;15.00;99.90
14031;DHT22;7090;49.436;8.490;2023-08-30T02:10:29;14.90;99.90
14031;DHT22;7090;49.436;8.490;2023-08-30T02:12:57;14.90;99.90
14031;DHT22;7090;49.436;8.490;2023-08-30T02:15:25;15.00;99.90
14031;DHT22;7090;49.436;8.490;2023-08-30T02:17:52;14.90;99.90
14031;DHT22;7090;49.436;8.490;2023-08-30T02:20:18;15.00;99.90
14031;DHT22;7090;49.436;8.490;2023-08-30T02:22:44;14.90;99.90
14031;DHT22;7090;49.436;8.490;2023-08-30T02:25:09;14.90;99.90
14031;DHT22;7090;49.436;8.490;2023-08-30T02:27:35;14.90;99.90
14031;DHT22;7090;49.436;8.490;2023-08-30T02:30:01;14.90;99.90
14031;DHT22;7090;49.436;8.490;2023-08-30T02:32:28;14.90;99.90
14031;DHT22;7090;49.436;8.490;2023-08-30T02:34:53;14.90;99.90
14031;DHT22;7090;49.436;8.490;2023-08-30T02:37:19;14.90;99.90
14031;DHT22;7090;49.436;8.490;2023-08-30T02:39:45;14.90;99.90
14031;DHT22;7090;49.436;8.490;2023-08-30T02:42:11;15.00;99.90
14031;DHT22;7090;49.436;8.490;2023-08-30T02:44:36;15.00;99.90
14031;DHT22;7090;49.436;8.490;2023-08-30T02:47:02;15.00;99.90
14031;DHT22;7090;49.436;8.490;2023-08-30T02:49:27;15.00;99.90
14031;DHT22;7090;49.436;8.490;2023-08-30T02:51:53;15.00;99.90
14031;DHT22;7090;49.436;8.490;2023-08-30T02:54:19;15.00;99.90
14031;DHT22;7090;49.436;8.490;2023-08-30T02:56:45;15.00;99.90
14031;DHT22;7090;49.436;8.490;2023-08-30T02:59:11;15.00;99.90
14031;DHT22;7090;49.436;8.490;2023-08-30T03:01:37;15.00;99.90
14031;DHT22;7090;49.436;8.490;2023-08-30T03:04:07;15.00;99.90
14031;DHT22;7090;49.436;8.490;2023-08-30T03:06:33;15.00;99.90
14031;DHT22;7090;49.436;8.490;2023-08-30T03:08:59;15.10;99.90
14031;DHT22;7090;49.436;8.490;2023-08-30T03:11:25;15.10;99.90
14031;DHT22;7090;49.436;8.490;2023-08-30T03:13:52;15.00;99.90
14031;DHT22;7090;49.436;8.490;2023-08-30T03:16:19;15.10;99.90
14031;DHT22;7090;49.436;8.490;2023-08-30T03:18:44;15.10;99.90
14031;DHT22;7090;49.436;8.490;2023-08-30T03:21:10;15.10;99.90
14031;DHT22;7090;49.436;8.490;2023-08-30T03:23:37;15.10;99.90
14031;DHT22;7090;49.436;8.490;2023-08-30T03:26:13;15.00;99.90
14031;DHT22;7090;49.436;8.490;2023-08-30T03:28:39;15.10;99.90
14031;DHT22;7090;49.436;8.490;2023-08-30T03:31:16;15.10;99.90
14031;DHT22;7090;49.436;8.490;2023-08-30T03:33:42;15.00;99.90
14031;DHT22;7090;49.436;8.490;2023-08-30T03:36:10;15.00;99.90
14031;DHT22;7090;49.436;8.490;2023-08-30T03:38:36;15.10;99.90
14031;DHT22;7090;49.436;8.490;2023-08-30T03:41:03;15.00;99.90
14031;DHT22;7090;49.436;8.490;2023-08-30T03:43:29;15.00;99.90
14031;DHT22;7090;49.436;8.490;2023-08-30T03:45:55;15.10;99.90
14031;DHT22;7090;49.436;8.490;2023-08-30T03:48:20;15.00;99.90
14031;DHT22;7090;49.436;8.490;2023-08-30T03:50:46;15.10;99.90
14031;DHT22;7090;49.436;8.490;2023-08-30T03:53:12;15.10;99.90
14031;DHT22;7090;49.436;8.490;2023-08-30T03:55:37;15.10;99.90
14031;DHT22;7090;49.436;8.490;2023-08-30T03:58:03;15.00;99.90
14031;DHT22;7090;49.436;8.490;2023-08-30T04:00:28;15.00;99.90
14031;DHT22;7090;49.436;8.490;2023-08-30T04:02:54;14.90;99.90
14031;DHT22;7090;49.436;8.490;2023-08-30T04:05:19;15.00;99.90
14031;DHT22;7090;49.436;8.490;2023-08-30T04:07:45;15.00;99.90
14031;DHT22;7090;49.436;8.490;2023-08-30T04:10:11;14.90;99.90
14031;DHT22;7090;49.436;8.490;2023-08-30T04:12:36;14.90;99.90
14031;DHT22;7090;49.436;8.490;2023-08-30T04:15:02;15.00;99.90
14031;DHT22;7090;49.436;8.490;2023-08-30T04:17:28;15.00;99.90
14031;DHT22;7090;49.436;8.490;2023-08-30T04:19:54;15.00;99.90
14031;DHT22;7090;49.436;8.490;2023-08-30T04:22:19;15.00;99.90
14031;DHT22;7090;49.436;8.490;2023-08-30T04:24:46;15.00;99.90
14031;DHT22;7090;49.436;8.490;2023-08-30T04:27:11;14.90;99.90
14031;DHT22;7090;49.436;8.490;2023-08-30T04:29:37;14.90;99.90
14031;DHT22;7090;49.436;8.490;2023-08-30T04:32:02;14.90;99.90
14031;DHT22;7090;49.436;8.490;2023-08-30T04:34:28;14.90;99.90
14031;DHT22;7090;49.436;8.490;2023-08-30T04:36:55;14.90;99.90
14031;DHT22;7090;49.436;8.490;2023-08-30T04:39:21;14.80;99.90
14031;DHT22;7090;49.436;8.490;2023-08-30T04:41:47;14.80;99.90
14031;DHT22;7090;49.436;8.490;2023-08-30T04:44:12;14.80;99.90
14031;DHT22;7090;49.436;8.490;2023-08-30T04:46:38;14.80;99.90
14031;DHT22;7090;49.436;8.490;2023-08-30T04:49:03;14.80;99.90
14031;DHT22;7090;49.436;8.490;2023-08-30T04:51:30;14.80;99.90
14031;DHT22;7090;49.436;8.490;2023-08-30T04:53:56;14.80;99.90
14031;DHT22;7090;49.436;8.490;2023-08-30T04:56:21;14.80;99.90
14031;DHT22;7090;49.436;8.490;2023-08-30T04:58:47;14.90;99.90
14031;DHT22;7090;49.436;8.490;2023-08-30T05:01:12;14.80;99.90
14031;DHT22;7090;49.436;8.490;2023-08-30T05:03:39;14.80;99.90
14031;DHT22;7090;49.436;8.490;2023-08-30T05:06:05;14.80;99.90
14031;DHT22;7090;49.436;8.490;2023-08-30T05:08:31;14.80;99.90
14031;DHT22;7090;49.436;8.490;2023-08-30T05:10:56;14.90;99.90
14031;DHT22;7090;49.436;8.490;2023-08-30T05:13:22;14.90;99.90
14031;DHT22;7090;49.436;8.490;2023-08-30T05:15:48;14.80;99.90
14031;DHT22;7090;49.436;8.490;2023-08-30T05:18:13;14.90;99.90
14031;DHT22;7090;49.436;8.490;2023-08-30T05:20:39;14.90;99.90
14031;DHT22;7090;49.436;8.490;2023-08-30T05:23:04;14.90;99.90
14031;DHT22;7090;49.436;8.490;2023-08-30T05:25:30;14.90;99.90
14031;DHT22;7090;49.436;8.490;2023-08-30T05:27:55;14.90;99.90
14031;DHT22;7090;49.436;8.490;2023-08-30T05:30:21;14.90;99.90
14031;DHT22;7090;49.436;8.490;2023-08-30T05:32:47;15.00;99.90
14031;DHT22;7090;49.436;8.490;2023-08-30T05:35:12;15.00;99.90
14031;DHT22;7090;49.436;8.490;2023-08-30T05:37:38;15.00;99.90
14031;DHT22;7090;49.436;8.490;2023-08-30T05:40:04;15.10;99.90
14031;DHT22;7090;49.436;8.490;2023-08-30T05:42:29;15.20;99.90
14031;DHT22;7090;49.436;8.490;2023-08-30T05:44:55;15.10;99.90
14031;DHT22;7090;49.436;8.490;2023-08-30T05:47:21;15.30;99.90
14031;DHT22;7090;49.436;8.490;2023-08-30T05:49:47;15.20;99.90
14031;DHT22;7090;49.436;8.490;2023-08-30T05:52:14;15.30;99.90
14031;DHT22;7090;49.436;8.490;2023-08-30T05:54:41;15.40;99.90
14031;DHT22;7090;49.436;8.490;2023-08-30T05:57:07;15.40;99.90
14031;DHT22;7090;49.436;8.490;2023-08-30T05:59:33;15.60;99.90
14031;DHT22;7090;49.436;8.490;2023-08-30T06:02:00;15.70;99.90
14031;DHT22;7090;49.436;8.490;2023-08-30T06:04:26;15.90;99.90
14031;DHT22;7090;49.436;8.490;2023-08-30T06:06:51;16.20;99.90
14031;DHT22;7090;49.436;8.490;2023-08-30T06:09:17;16.30;99.90
14031;DHT22;7090;49.436;8.490;2023-08-30T06:11:43;16.60;99.90
14031;DHT22;7090;49.436;8.490;2023-08-30T06:14:08;16.50;99.90
14031;DHT22;7090;49.436;8.490;2023-08-30T06:16:34;16.20;99.90
14031;DHT22;7090;49.436;8.490;2023-08-30T06:18:59;16.10;99.90
14031;DHT22;7090;49.436;8.490;2023-08-30T06:21:25;16.30;99.90
14031;DHT22;7090;49.436;8.490;2023-08-30T06:23:51;16.20;99.90
14031;DHT22;7090;49.436;8.490;2023-08-30T06:26:17;16.20;99.90
14031;DHT22;7090;49.436;8.490;2023-08-30T06:28:43;16.10;99.90
14031;DHT22;7090;49.436;8.490;2023-08-30T06:31:10;16.20;99.90
14031;DHT22;7090;49.436;8.490;2023-08-30T06:33:35;16.30;99.90
14031;DHT22;7090;49.436;8.490;2023-08-30T06:36:02;16.10;99.90
14031;DHT22;7090;49.436;8.490;2023-08-30T06:38:28;16.00;99.90
14031;DHT22;7090;49.436;8.490;2023-08-30T06:40:53;16.20;99.90
14031;DHT22;7090;49.436;8.490;2023-08-30T06:43:19;16.10;99.90
14031;DHT22;7090;49.436;8.490;2023-08-30T06:45:45;16.10;99.90
14031;DHT22;7090;49.436;8.490;2023-08-30T06:48:11;16.00;99.90
14031;DHT22;7090;49.436;8.490;2023-08-30T06:50:37;16.00;99.90
14031;DHT22;7090;49.436;8.490;2023-08-30T06:53:03;15.90;99.90
14031;DHT22;7090;49.436;8.490;2023-08-30T06:55:29;16.00;99.90
14031;DHT22;7090;49.436;8.490;2023-08-30T06:57:55;16.10;99.90
14031;DHT22;7090;49.436;8.490;2023-08-30T07:00:21;16.10;99.90
14031;DHT22;7090;49.436;8.490;2023-08-30T07:02:46;16.20;99.90
14031;DHT22;7090;49.436;8.490;2023-08-30T07:05:12;16.30;99.90
14031;DHT22;7090;49.436;8.490;2023-08-30T07:07:38;16.40;99.90
14031;DHT22;7090;49.436;8.490;2023-08-30T07:10:05;16.60;99.90
14031;DHT22;7090;49.436;8.490;2023-08-30T07:12:30;16.70;99.90
14031;DHT22;7090;49.436;8.490;2023-08-30T07:14:56;16.90;99.90
14031;DHT22;7090;49.436;8.490;2023-08-30T07:17:21;17.00;99.90
14031;DHT22;7090;49.436;8.490;2023-08-30T07:19:48;17.10;99.90
14031;DHT22;7090;49.436;8.490;2023-08-30T07:22:14;17.10;99.90
14031;DHT22;7090;49.436;8.490;2023-08-30T07:24:44;17.30;99.90
14031;DHT22;7090;49.436;8.490;2023-08-30T07:27:10;17.60;99.90
14031;DHT22;7090;49.436;8.490;2023-08-30T07:29:38;17.50;99.90
14031;DHT22;7090;49.436;8.490;2023-08-30T07:32:05;17.50;99.90
14031;DHT22;7090;49.436;8.490;2023-08-30T07:34:31;17.70;99.90
14031;DHT22;7090;49.436;8.490;2023-08-30T07:36:57;17.60;99.90
14031;DHT22;7090;49.436;8.490;2023-08-30T07:39:22;17.50;99.90
14031;DHT22;7090;49.436;8.490;2023-08-30T07:41:48;17.70;99.90
14031;DHT22;7090;49.436;8.490;2023-08-30T07:44:13;17.80;99.90
14031;DHT22;7090;49.436;8.490;2023-08-30T07:46:39;17.80;99.90
14031;DHT22;7090;49.436;8.490;2023-08-30T07:49:05;17.60;99.90
14031;DHT22;7090;49.436;8.490;2023-08-30T07:51:31;17.50;99.90
14031;DHT22;7090;49.436;8.490;2023-08-30T07:53:56;17.90;99.90
14031;DHT22;7090;49.436;8.490;2023-08-30T07:56:22;18.00;99.90
14031;DHT22;7090;49.436;8.490;2023-08-30T07:58:47;18.10;99.90
14031;DHT22;7090;49.436;8.490;2023-08-30T08:01:13;18.30;99.90
14031;DHT22;7090;49.436;8.490;2023-08-30T08:03:38;18.30;99.90
14031;DHT22;7090;49.436;8.490;2023-08-30T08:06:06;18.40;99.90
14031;DHT22;7090;49.436;8.490;2023-08-30T08:08:32;18.60;99.90
14031;DHT22;7090;49.436;8.490;2023-08-30T08:10:59;18.60;99.90
14031;DHT22;7090;49.436;8.490;2023-08-30T08:13:24;18.60;99.90
14031;DHT22;7090;49.436;8.490;2023-08-30T08:15:50;18.90;13.40
14031;DHT22;7090;49.436;8.490;2023-08-30T08:18:15;18.70;62.40
14031;DHT22;7090;49.436;8.490;2023-08-30T08:20:41;18.40;99.90
14031;DHT22;7090;49.436;8.490;2023-08-30T08:23:07;18.30;99.90
14031;DHT22;7090;49.436;8.490;2023-08-30T08:25:32;18.40;99.90
14031;DHT22;7090;49.436;8.490;2023-08-30T08:27:58;18.30;99.90
14031;DHT22;7090;49.436;8.490;2023-08-30T08:30:23;18.30;99.90
14031;DHT22;7090;49.436;8.490;2023-08-30T08:32:49;18.70;99.90
14031;DHT22;7090;49.436;8.490;2023-08-30T08:35:15;18.80;99.90
14031;DHT22;7090;49.436;8.490;2023-08-30T08:37:40;19.10;99.90
14031;DHT22;7090;49.436;8.490;2023-08-30T08:40:07;19.30;1.00
14031;DHT22;7090;49.436;8.490;2023-08-30T08:42:36;19.00;1.70
14031;DHT22;7090;49.436;8.490;2023-08-30T08:45:03;19.10;99.90
14031;DHT22;7090;49.436;8.490;2023-08-30T08:47:32;18.90;1.00
14031;DHT22;7090;49.436;8.490;2023-08-30T08:49:59;18.90;1.00
14031;DHT22;7090;49.436;8.490;2023-08-30T08:52:29;18.90;46.80
14031;DHT22;7090;49.436;8.490;2023-08-30T08:54:55;19.30;1.00
14031;DHT22;7090;49.436;8.490;2023-08-30T08:57:21;19.40;1.00
14031;DHT22;7090;49.436;8.490;2023-08-30T08:59:47;19.60;1.00
14031;DHT22;7090;49.436;8.490;2023-08-30T09:02:14;19.20;1.00
14031;DHT22;7090;49.436;8.490;2023-08-30T09:04:40;19.30;1.00
14031;DHT22;7090;49.436;8.490;2023-08-30T09:07:06;19.80;1.00
14031;DHT22;7090;49.436;8.490;2023-08-30T09:09:33;19.60;1.00
14031;DHT22;7090;49.436;8.490;2023-08-30T09:11:59;19.40;1.00
14031;DHT22;7090;49.436;8.490;2023-08-30T09:14:24;19.60;1.00
14031;DHT22;7090;49.436;8.490;2023-08-30T09:16:58;19.40;1.00
14031;DHT22;7090;49.436;8.490;2023-08-30T09:19:24;19.70;1.00
14031;DHT22;7090;49.436;8.490;2023-08-30T09:21:57;19.70;1.00
14031;DHT22;7090;49.436;8.490;2023-08-30T09:24:23;19.90;1.00
14031;DHT22;7090;49.436;8.490;2023-08-30T09:26:51;19.90;1.00
14031;DHT22;7090;49.436;8.490;2023-08-30T09:29:18;20.30;1.00
14031;DHT22;7090;49.436;8.490;2023-08-30T09:31:45;20.40;99.90
14031;DHT22;7090;49.436;8.490;2023-08-30T09:34:10;20.80;99.90
14031;DHT22;7090;49.436;8.490;2023-08-30T09:36:40;20.80;99.90
14031;DHT22;7090;49.436;8.490;2023-08-30T09:39:08;21.00;19.70
14031;DHT22;7090;49.436;8.490;2023-08-30T09:41:35;20.70;99.90
14031;DHT22;7090;49.436;8.490;2023-08-30T09:44:07;20.40;99.90
14031;DHT22;7090;49.436;8.490;2023-08-30T09:46:40;20.20;99.90
14031;DHT22;7090;49.436;8.490;2023-08-30T09:49:06;20.70;99.90
14031;DHT22;7090;49.436;8.490;2023-08-30T09:51:33;21.10;57.10
14031;DHT22;7090;49.436;8.490;2023-08-30T09:54:04;20.80;13.60
14031;DHT22;7090;49.436;8.490;2023-08-30T09:56:32;20.80;94.70
14031;DHT22;7090;49.436;8.490;2023-08-30T09:58:58;21.10;82.90
14031;DHT22;7090;49.436;8.490;2023-08-30T10:01:26;21.40;1.00
14031;DHT22;7090;49.436;8.490;2023-08-30T10:03:54;21.20;1.00
14031;DHT22;7090;49.436;8.490;2023-08-30T10:06:20;21.10;19.50
14031;DHT22;7090;49.436;8.490;2023-08-30T10:08:49;20.50;99.90
14031;DHT22;7090;49.436;8.490;2023-08-30T10:11:18;20.50;99.90
14031;DHT22;7090;49.436;8.490;2023-08-30T10:13:44;21.00;99.90
14031;DHT22;7090;49.436;8.490;2023-08-30T10:16:14;20.70;20.00
14031;DHT22;7090;49.436;8.490;2023-08-30T10:18:42;20.30;99.90
14031;DHT22;7090;49.436;8.490;2023-08-30T10:21:12;20.50;99.90
14031;DHT22;7090;49.436;8.490;2023-08-30T10:23:39;20.70;99.90
14031;DHT22;7090;49.436;8.490;2023-08-30T10:26:05;20.90;99.90
14031;DHT22;7090;49.436;8.490;2023-08-30T10:28:32;21.40;48.20
14031;DHT22;7090;49.436;8.490;2023-08-30T10:30:59;21.50;1.00
14031;DHT22;7090;49.436;8.490;2023-08-30T10:33:25;22.10;1.00
14031;DHT22;7090;49.436;8.490;2023-08-30T10:35:51;21.40;1.00
14031;DHT22;7090;49.436;8.490;2023-08-30T10:38:27;21.00;1.00
14031;DHT22;7090;49.436;8.490;2023-08-30T10:40:54;20.70;1.00
14031;DHT22;7090;49.436;8.490;2023-08-30T10:43:29;21.10;1.00
14031;DHT22;7090;49.436;8.490;2023-08-30T10:46:01;21.60;1.00
14031;DHT22;7090;49.436;8.490;2023-08-30T10:48:37;21.50;1.00
14031;DHT22;7090;49.436;8.490;2023-08-30T10:51:06;21.80;1.00
14031;DHT22;7090;49.436;8.490;2023-08-30T10:53:32;22.00;1.00
14031;DHT22;7090;49.436;8.490;2023-08-30T10:56:10;21.70;1.00
14031;DHT22;7090;49.436;8.490;2023-08-30T10:58:41;21.80;1.00
14031;DHT22;7090;49.436;8.490;2023-08-30T11:01:10;21.80;1.00
14031;DHT22;7090;49.436;8.490;2023-08-30T11:03:40;22.00;1.00
14031;DHT22;7090;49.436;8.490;2023-08-30T11:06:05;21.80;1.00
14031;DHT22;7090;49.436;8.490;2023-08-30T11:08:31;22.40;1.00
14031;DHT22;7090;49.436;8.490;2023-08-30T11:11:07;22.60;99.90
14031;DHT22;7090;49.436;8.490;2023-08-30T11:13:35;22.50;1.00
14031;DHT22;7090;49.436;8.490;2023-08-30T11:16:01;22.00;37.60
14031;DHT22;7090;49.436;8.490;2023-08-30T11:18:38;21.70;1.00
14031;DHT22;7090;49.436;8.490;2023-08-30T11:21:05;21.80;1.00
14031;DHT22;7090;49.436;8.490;2023-08-30T11:23:31;21.50;1.00
14031;DHT22;7090;49.436;8.490;2023-08-30T11:25:58;21.40;1.00
14031;DHT22;7090;49.436;8.490;2023-08-30T11:28:25;21.70;1.00
14031;DHT22;7090;49.436;8.490;2023-08-30T11:30:54;22.30;1.00
14031;DHT22;7090;49.436;8.490;2023-08-30T11:33:23;22.50;1.00
14031;DHT22;7090;49.436;8.490;2023-08-30T11:35:50;22.40;1.00
14031;DHT22;7090;49.436;8.490;2023-08-30T11:38:17;22.50;51.00
14031;DHT22;7090;49.436;8.490;2023-08-30T11:40:43;22.90;1.00
14031;DHT22;7090;49.436;8.490;2023-08-30T11:43:09;23.00;99.90
14031;DHT22;7090;49.436;8.490;2023-08-30T11:45:35;23.20;1.00
14031;DHT22;7090;49.436;8.490;2023-08-30T11:48:01;23.00;99.90
14031;DHT22;7090;49.436;8.490;2023-08-30T11:50:28;23.10;39.40
14031;DHT22;7090;49.436;8.490;2023-08-30T11:52:54;23.70;99.90
14031;DHT22;7090;49.436;8.490;2023-08-30T11:55:22;23.90;99.90
14031;DHT22;7090;49.436;8.490;2023-08-30T11:57:49;24.10;99.90
14031;DHT22;7090;49.436;8.490;2023-08-30T12:00:18;24.20;99.90
14031;DHT22;7090;49.436;8.490;2023-08-30T12:02:45;23.70;99.90
14031;DHT22;7090;49.436;8.490;2023-08-30T12:05:12;23.20;99.90
14031;DHT22;7090;49.436;8.490;2023-08-30T12:07:38;23.10;99.90
14031;DHT22;7090;49.436;8.490;2023-08-30T12:10:06;22.60;99.90
14031;DHT22;7090;49.436;8.490;2023-08-30T12:12:32;22.80;99.90
14031;DHT22;7090;49.436;8.490;2023-08-30T12:14:57;23.70;25.10
14031;DHT22;7090;49.436;8.490;2023-08-30T12:17:23;23.50;99.90
14031;DHT22;7090;49.436;8.490;2023-08-30T12:19:56;23.50;99.90
14031;DHT22;7090;49.436;8.490;2023-08-30T12:22:22;24.00;99.90
14031;DHT22;7090;49.436;8.490;2023-08-30T12:24:47;23.40;99.90
14031;DHT22;7090;49.436;8.490;2023-08-30T12:27:13;23.70;99.90
14031;DHT22;7090;49.436;8.490;2023-08-30T12:29:39;24.30;99.90
14031;DHT22;7090;49.436;8.490;2023-08-30T12:32:05;23.80;99.90
14031;DHT22;7090;49.436;8.490;2023-08-30T12:34:31;23.60;99.90
14031;DHT22;7090;49.436;8.490;2023-08-30T12:36:57;24.60;99.90
14031;DHT22;7090;49.436;8.490;2023-08-30T12:39:23;24.60;1.00
14031;DHT22;7090;49.436;8.490;2023-08-30T12:41:48;23.40;99.90
14031;DHT22;7090;49.436;8.490;2023-08-30T12:44:14;23.30;99.90
14031;DHT22;7090;49.436;8.490;2023-08-30T12:46:39;24.10;1.00
14031;DHT22;7090;49.436;8.490;2023-08-30T12:49:05;24.20;99.90
14031;DHT22;7090;49.436;8.490;2023-08-30T12:51:31;24.10;99.90
14031;DHT22;7090;49.436;8.490;2023-08-30T12:53:56;24.80;1.00
14031;DHT22;7090;49.436;8.490;2023-08-30T12:56:22;24.90;1.00
14031;DHT22;7090;49.436;8.490;2023-08-30T12:58:48;24.00;1.00
14031;DHT22;7090;49.436;8.490;2023-08-30T13:01:13;23.80;99.90
14031;DHT22;7090;49.436;8.490;2023-08-30T13:03:39;23.70;99.90
14031;DHT22;7090;49.436;8.490;2023-08-30T13:06:04;24.10;99.90
14031;DHT22;7090;49.436;8.490;2023-08-30T13:08:30;24.40;1.00
14031;DHT22;7090;49.436;8.490;2023-08-30T13:10:59;23.60;1.00
14031;DHT22;7090;49.436;8.490;2023-08-30T13:13:25;23.70;1.00
14031;DHT22;7090;49.436;8.490;2023-08-30T13:15:51;23.70;99.90
14031;DHT22;7090;49.436;8.490;2023-08-30T13:18:16;23.40;99.90
14031;DHT22;7090;49.436;8.490;2023-08-30T13:20:43;23.50;1.00
14031;DHT22;7090;49.436;8.490;2023-08-30T13:23:09;23.80;1.00
14031;DHT22;7090;49.436;8.490;2023-08-30T13:25:38;23.90;1.00
14031;DHT22;7090;49.436;8.490;2023-08-30T13:28:04;24.30;1.00
14031;DHT22;7090;49.436;8.490;2023-08-30T13:30:30;24.40;1.00
14031;DHT22;7090;49.436;8.490;2023-08-30T13:32:55;24.60;1.00
14031;DHT22;7090;49.436;8.490;2023-08-30T13:35:21;24.70;1.00
14031;DHT22;7090;49.436;8.490;2023-08-30T13:37:47;25.10;1.00
14031;DHT22;7090;49.436;8.490;2023-08-30T13:40:13;25.40;1.00
14031;DHT22;7090;49.436;8.490;2023-08-30T13:42:38;25.20;1.00
14031;DHT22;7090;49.436;8.490;2023-08-30T13:45:04;24.30;1.00
14031;DHT22;7090;49.436;8.490;2023-08-30T13:47:31;24.20;1.00
14031;DHT22;7090;49.436;8.490;2023-08-30T13:49:57;24.00;1.00
14031;DHT22;7090;49.436;8.490;2023-08-30T13:52:24;24.10;1.00
14031;DHT22;7090;49.436;8.490;2023-08-30T13:54:50;24.60;1.00
14031;DHT22;7090;49.436;8.490;2023-08-30T13:57:17;24.70;1.00
14031;DHT22;7090;49.436;8.490;2023-08-30T13:59:42;24.20;1.00
14031;DHT22;7090;49.436;8.490;2023-08-30T14:02:08;24.40;1.00
14031;DHT22;7090;49.436;8.490;2023-08-30T14:04:34;24.70;1.00
14031;DHT22;7090;49.436;8.490;2023-08-30T14:07:01;25.20;1.00
14031;DHT22;7090;49.436;8.490;2023-08-30T14:09:28;25.50;1.00
14031;DHT22;7090;49.436;8.490;2023-08-30T14:11:54;24.80;1.00
14031;DHT22;7090;49.436;8.490;2023-08-30T14:14:20;24.00;1.00
14031;DHT22;7090;49.436;8.490;2023-08-30T14:16:46;24.30;1.00
14031;DHT22;7090;49.436;8.490;2023-08-30T14:19:12;23.90;1.00
14031;DHT22;7090;49.436;8.490;2023-08-30T14:21:37;23.30;1.00
14031;DHT22;7090;49.436;8.490;2023-08-30T14:24:03;23.40;1.00
14031;DHT22;7090;49.436;8.490;2023-08-30T14:26:29;24.40;1.00
14031;DHT22;7090;49.436;8.490;2023-08-30T14:28:54;25.10;1.00
14031;DHT22;7090;49.436;8.490;2023-08-30T14:31:20;25.00;1.00
14031;DHT22;7090;49.436;8.490;2023-08-30T14:33:45;25.00;1.00
14031;DHT22;7090;49.436;8.490;2023-08-30T14:36:11;24.70;1.00
14031;DHT22;7090;49.436;8.490;2023-08-30T14:38:38;25.00;1.00
14031;DHT22;7090;49.436;8.490;2023-08-30T14:41:03;25.30;1.00
14031;DHT22;7090;49.436;8.490;2023-08-30T14:43:29;25.00;1.00
14031;DHT22;7090;49.436;8.490;2023-08-30T14:46:00;24.80;1.00
14031;DHT22;7090;49.436;8.490;2023-08-30T14:48:26;25.00;1.00
14031;DHT22;7090;49.436;8.490;2023-08-30T14:50:51;25.00;1.00
14031;DHT22;7090;49.436;8.490;2023-08-30T14:53:17;25.10;1.00
14031;DHT22;7090;49.436;8.490;2023-08-30T14:55:46;24.70;1.00
14031;DHT22;7090;49.436;8.490;2023-08-30T14:58:12;24.90;1.00
14031;DHT22;7090;49.436;8.490;2023-08-30T15:00:38;24.50;1.00
14031;DHT22;7090;49.436;8.490;2023-08-30T15:03:03;24.50;1.00
14031;DHT22;7090;49.436;8.490;2023-08-30T15:05:30;24.30;1.00
14031;DHT22;7090;49.436;8.490;2023-08-30T15:07:56;24.60;1.00
14031;DHT22;7090;49.436;8.490;2023-08-30T15:10:22;24.40;1.00
14031;DHT22;7090;49.436;8.490;2023-08-30T15:12:47;23.90;1.00
14031;DHT22;7090;49.436;8.490;2023-08-30T15:15:14;24.20;1.00
14031;DHT22;7090;49.436;8.490;2023-08-30T15:17:40;24.60;1.00
14031;DHT22;7090;49.436;8.490;2023-08-30T15:20:08;25.00;1.00
14031;DHT22;7090;49.436;8.490;2023-08-30T15:22:34;25.00;1.00
14031;DHT22;7090;49.436;8.490;2023-08-30T15:25:00;24.50;1.00
14031;DHT22;7090;49.436;8.490;2023-08-30T15:27:28;24.10;1.00
14031;DHT22;7090;49.436;8.490;2023-08-30T15:29:54;24.20;1.00
14031;DHT22;7090;49.436;8.490;2023-08-30T15:32:24;23.60;1.00
14031;DHT22;7090;49.436;8.490;2023-08-30T15:34:49;23.50;1.00
14031;DHT22;7090;49.436;8.490;2023-08-30T15:37:16;23.20;1.00
14031;DHT22;7090;49.436;8.490;2023-08-30T15:39:42;23.40;1.00
14031;DHT22;7090;49.436;8.490;2023-08-30T15:42:08;23.00;1.00
14031;DHT22;7090;49.436;8.490;2023-08-30T15:44:33;23.00;1.00
14031;DHT22;7090;49.436;8.490;2023-08-30T15:46:59;23.20;1.00